Portada
METAR-TAF:

METAR-TAF

Aeroports :

Islip, Nova York, Estats Units d'Amèrica

latitud: 40-47-38N, longitud: 073-06-06W, altitud: 30 m

Observació

L'informe es va fer fa 25 minuts, a les 00:56 UTC
Vent 16 kt del Oest/Nord-Oest amb ràfegues de 25 kt
Temperatura 0°C
Humitat 37%
Pressió 1009 hPa
Visibilitat: 16.1 km
Escasses núvols a una alçada de 5500 ft

METAR: KISP 050056Z 30016G25KT 10SM FEW055 00/M13 A2980 RMK AO2 PK WND 29027/0042 SLP092 T00001128

Hora: 20:21 (01:21 UTC)

Pronòstic

L'informe es va fer fa 1 hora i 44 minuts, a les 23:37 UTC
Pronòstic vàlid del 05 a les 00 UTC al 05 a les 24 UTC
Vent 18 kt del Nord-Oest amb ràfegues de 27 kt
Visibilitat: 10 km
Cel clar
A partir de les 05 a les 1000 UTC
Vent 15 kt del Nord-Oest amb ràfegues de 25 kt
Visibilitat: 10 km
Cel clar
A partir de les 05 a les 1600 UTC
Vent 19 kt del Oest/Nord-Oest amb ràfegues de 27 kt
Visibilitat: 10 km
Cel clar

TAF: KISP 042337Z 0500/0524 31018G27KT P6SM SKC FM051000 31015G25KT P6SM SKC FM051600 30019G27KT P6SM SKC

Observacions i pronòstics meteorològics de més de 4000 aeroports (METAR i TAF).

Les estacions disponibles són els punts grocs i vermells al mapa.

Posi el ratolí al punt desitjat per veure el nom de l'estació.

Feu clic per veure les observacions i els pronòstics meteorològics.

Per canviar el mapa: feu clic els botons verds amb una creu de color negre per apropar; al botó verd amb un guió per allunyar la imatge; o en les fletxes verdes per a mapes adjacents.


METAR-TAF: